sensor_id;sensor_type;location;lat;lon;timestamp;pressure;altitude;pressure_sealevel;temperature;humidity
59600;BME280;61855;55.030;73.326;2022-07-26T00:01:13;99555.94;;;19.41;55.89
59600;BME280;61855;55.030;73.326;2022-07-26T00:03:39;99552.47;;;19.45;55.92
59600;BME280;61855;55.030;73.326;2022-07-26T00:06:05;99547.34;;;19.49;55.71
59600;BME280;61855;55.030;73.326;2022-07-26T00:08:32;99536.63;;;19.47;55.73
59600;BME280;61855;55.030;73.326;2022-07-26T00:10:58;99556.94;;;19.51;55.78
59600;BME280;61855;55.030;73.326;2022-07-26T00:13:25;99553.38;;;19.51;55.78
59600;BME280;61855;55.030;73.326;2022-07-26T00:15:51;99550.63;;;19.51;55.99
59600;BME280;61855;55.030;73.326;2022-07-26T00:18:18;99553.94;;;19.53;56.64
59600;BME280;61855;55.030;73.326;2022-07-26T00:20:55;99550.94;;;19.54;56.30
59600;BME280;61855;55.030;73.326;2022-07-26T00:23:30;99553.47;;;19.56;56.58
59600;BME280;61855;55.030;73.326;2022-07-26T00:25:57;99561.16;;;19.59;57.01
59600;BME280;61855;55.030;73.326;2022-07-26T00:28:23;99552.94;;;19.59;57.03
59600;BME280;61855;55.030;73.326;2022-07-26T00:30:49;99562.25;;;19.58;56.82
59600;BME280;61855;55.030;73.326;2022-07-26T00:33:15;99562.81;;;19.60;56.95
59600;BME280;61855;55.030;73.326;2022-07-26T00:35:41;99566.38;;;19.61;56.61
59600;BME280;61855;55.030;73.326;2022-07-26T00:38:07;99563.13;;;19.64;56.84
59600;BME280;61855;55.030;73.326;2022-07-26T00:40:33;99571.19;;;19.70;56.70
59600;BME280;61855;55.030;73.326;2022-07-26T00:42:59;99565.78;;;19.75;56.60
59600;BME280;61855;55.030;73.326;2022-07-26T00:45:25;99565.25;;;19.78;57.25
59600;BME280;61855;55.030;73.326;2022-07-26T00:47:51;99562.88;;;19.82;57.02
59600;BME280;61855;55.030;73.326;2022-07-26T00:50:18;99565.69;;;19.87;56.42
59600;BME280;61855;55.030;73.326;2022-07-26T00:52:47;99565.97;;;19.90;56.08
59600;BME280;61855;55.030;73.326;2022-07-26T00:55:14;99561.16;;;19.97;55.86
59600;BME280;61855;55.030;73.326;2022-07-26T00:57:42;99560.38;;;20.02;55.97
59600;BME280;61855;55.030;73.326;2022-07-26T01:00:13;99547.84;;;20.06;56.11
59600;BME280;61855;55.030;73.326;2022-07-26T01:02:40;99557.53;;;20.13;56.32
59600;BME280;61855;55.030;73.326;2022-07-26T01:05:08;99560.59;;;20.17;56.25
59600;BME280;61855;55.030;73.326;2022-07-26T01:07:36;99552.22;;;20.23;55.82
59600;BME280;61855;55.030;73.326;2022-07-26T01:10:05;99557.25;;;20.32;55.51
59600;BME280;61855;55.030;73.326;2022-07-26T01:12:33;99545.78;;;20.35;55.57
59600;BME280;61855;55.030;73.326;2022-07-26T01:14:59;99555.44;;;20.42;55.37
59600;BME280;61855;55.030;73.326;2022-07-26T01:17:25;99555.25;;;20.49;55.54
59600;BME280;61855;55.030;73.326;2022-07-26T01:19:51;99542.44;;;20.54;55.58
59600;BME280;61855;55.030;73.326;2022-07-26T01:22:17;99552.63;;;20.59;55.15
59600;BME280;61855;55.030;73.326;2022-07-26T01:24:43;99552.16;;;20.67;54.96
59600;BME280;61855;55.030;73.326;2022-07-26T01:27:09;99558.28;;;20.74;55.08
59600;BME280;61855;55.030;73.326;2022-07-26T01:29:45;99558.06;;;20.80;55.10
59600;BME280;61855;55.030;73.326;2022-07-26T01:32:11;99552.38;;;20.87;55.05
59600;BME280;61855;55.030;73.326;2022-07-26T01:34:39;99553.00;;;20.94;54.73
59600;BME280;61855;55.030;73.326;2022-07-26T01:37:05;99549.75;;;21.02;54.45
59600;BME280;61855;55.030;73.326;2022-07-26T01:39:31;99554.81;;;21.10;54.37
59600;BME280;61855;55.030;73.326;2022-07-26T01:41:57;99552.13;;;21.15;54.34
59600;BME280;61855;55.030;73.326;2022-07-26T01:44:23;99561.53;;;21.24;53.97
59600;BME280;61855;55.030;73.326;2022-07-26T01:46:49;99561.03;;;21.32;53.84
59600;BME280;61855;55.030;73.326;2022-07-26T01:49:15;99547.09;;;21.39;53.78
59600;BME280;61855;55.030;73.326;2022-07-26T01:51:42;99555.66;;;21.47;53.57
59600;BME280;61855;55.030;73.326;2022-07-26T01:54:08;99558.75;;;21.56;53.42
59600;BME280;61855;55.030;73.326;2022-07-26T01:56:34;99555.78;;;21.63;53.54
59600;BME280;61855;55.030;73.326;2022-07-26T01:59:00;99553.63;;;21.70;53.17
59600;BME280;61855;55.030;73.326;2022-07-26T02:01:26;99555.84;;;21.78;52.84
59600;BME280;61855;55.030;73.326;2022-07-26T02:03:52;99548.47;;;21.83;52.68
59600;BME280;61855;55.030;73.326;2022-07-26T02:06:18;99548.81;;;21.92;52.80
59600;BME280;61855;55.030;73.326;2022-07-26T02:08:45;99559.31;;;22.00;52.58
59600;BME280;61855;55.030;73.326;2022-07-26T02:11:20;99555.25;;;22.07;52.73
59600;BME280;61855;55.030;73.326;2022-07-26T02:13:46;99559.41;;;22.15;53.02
59600;BME280;61855;55.030;73.326;2022-07-26T02:16:22;99562.47;;;22.23;52.51
59600;BME280;61855;55.030;73.326;2022-07-26T02:18:52;99568.28;;;22.32;52.55
59600;BME280;61855;55.030;73.326;2022-07-26T02:21:20;99560.63;;;22.39;52.32
59600;BME280;61855;55.030;73.326;2022-07-26T02:23:46;99563.34;;;22.44;52.23
59600;BME280;61855;55.030;73.326;2022-07-26T02:26:12;99555.13;;;22.49;52.10
59600;BME280;61855;55.030;73.326;2022-07-26T02:28:38;99558.44;;;22.56;51.94
59600;BME280;61855;55.030;73.326;2022-07-26T02:31:05;99561.81;;;22.63;51.68
59600;BME280;61855;55.030;73.326;2022-07-26T02:33:31;99550.81;;;22.68;51.63
59600;BME280;61855;55.030;73.326;2022-07-26T02:36:01;99556.34;;;22.78;51.67
59600;BME280;61855;55.030;73.326;2022-07-26T02:38:29;99562.41;;;22.85;51.73
59600;BME280;61855;55.030;73.326;2022-07-26T02:40:55;99564.88;;;22.92;51.55
59600;BME280;61855;55.030;73.326;2022-07-26T02:43:32;99562.16;;;22.97;51.65
59600;BME280;61855;55.030;73.326;2022-07-26T02:45:58;99561.34;;;23.07;51.38
59600;BME280;61855;55.030;73.326;2022-07-26T02:48:24;99567.94;;;23.16;51.73
59600;BME280;61855;55.030;73.326;2022-07-26T02:50:50;99569.06;;;23.25;52.03
59600;BME280;61855;55.030;73.326;2022-07-26T02:53:24;99559.41;;;23.32;52.13
59600;BME280;61855;55.030;73.326;2022-07-26T02:55:50;99568.53;;;23.38;51.73
59600;BME280;61855;55.030;73.326;2022-07-26T02:58:16;99578.44;;;23.49;51.94
59600;BME280;61855;55.030;73.326;2022-07-26T03:00:46;99575.97;;;23.58;52.05
59600;BME280;61855;55.030;73.326;2022-07-26T03:03:15;99577.91;;;23.67;51.21
59600;BME280;61855;55.030;73.326;2022-07-26T03:05:41;99577.06;;;23.72;51.21
59600;BME280;61855;55.030;73.326;2022-07-26T03:08:12;99585.56;;;23.80;51.34
59600;BME280;61855;55.030;73.326;2022-07-26T03:10:41;99575.91;;;23.88;51.07
59600;BME280;61855;55.030;73.326;2022-07-26T03:13:07;99571.22;;;23.93;51.18
59600;BME280;61855;55.030;73.326;2022-07-26T03:15:43;99581.13;;;23.99;51.36
59600;BME280;61855;55.030;73.326;2022-07-26T03:18:09;99588.56;;;24.09;51.21
59600;BME280;61855;55.030;73.326;2022-07-26T03:20:35;99582.19;;;24.18;51.06
59600;BME280;61855;55.030;73.326;2022-07-26T03:23:06;99585.19;;;24.27;50.79
59600;BME280;61855;55.030;73.326;2022-07-26T03:25:32;99576.09;;;24.32;50.72
59600;BME280;61855;55.030;73.326;2022-07-26T03:28:00;99579.66;;;24.37;50.32
59600;BME280;61855;55.030;73.326;2022-07-26T03:30:27;99566.69;;;24.43;50.54
59600;BME280;61855;55.030;73.326;2022-07-26T03:32:58;99576.00;;;24.52;50.04
59600;BME280;61855;55.030;73.326;2022-07-26T03:35:26;99577.34;;;24.59;50.01
59600;BME280;61855;55.030;73.326;2022-07-26T03:37:52;99567.69;;;24.62;49.86
59600;BME280;61855;55.030;73.326;2022-07-26T03:40:24;99579.47;;;24.72;49.87
59600;BME280;61855;55.030;73.326;2022-07-26T03:42:50;99574.22;;;24.81;49.58
59600;BME280;61855;55.030;73.326;2022-07-26T03:45:17;99562.13;;;24.77;49.39
59600;BME280;61855;55.030;73.326;2022-07-26T03:47:43;99571.34;;;24.96;49.11
59600;BME280;61855;55.030;73.326;2022-07-26T03:50:17;99573.22;;;25.06;49.18
59600;BME280;61855;55.030;73.326;2022-07-26T03:52:49;99571.50;;;25.20;48.91
59600;BME280;61855;55.030;73.326;2022-07-26T03:55:15;99572.47;;;25.34;48.60
59600;BME280;61855;55.030;73.326;2022-07-26T03:57:59;99565.47;;;25.46;48.23
59600;BME280;61855;55.030;73.326;2022-07-26T04:00:25;99569.75;;;25.63;47.90
59600;BME280;61855;55.030;73.326;2022-07-26T04:02:53;99564.97;;;25.73;47.47
59600;BME280;61855;55.030;73.326;2022-07-26T04:05:28;99569.25;;;25.84;47.18
59600;BME280;61855;55.030;73.326;2022-07-26T04:07:54;99557.53;;;25.97;47.29
59600;BME280;61855;55.030;73.326;2022-07-26T04:10:21;99559.59;;;26.10;46.46
59600;BME280;61855;55.030;73.326;2022-07-26T04:12:47;99566.06;;;26.25;46.17
59600;BME280;61855;55.030;73.326;2022-07-26T04:15:13;99564.03;;;26.35;46.06
59600;BME280;61855;55.030;73.326;2022-07-26T04:17:42;99562.44;;;26.53;46.07
59600;BME280;61855;55.030;73.326;2022-07-26T04:20:09;99557.88;;;26.62;45.22
59600;BME280;61855;55.030;73.326;2022-07-26T04:22:37;99561.91;;;26.69;45.55
59600;BME280;61855;55.030;73.326;2022-07-26T04:25:04;99546.34;;;26.73;45.19
59600;BME280;61855;55.030;73.326;2022-07-26T04:27:31;99548.19;;;26.83;45.23
59600;BME280;61855;55.030;73.326;2022-07-26T04:29:57;99548.94;;;26.89;45.46
59600;BME280;61855;55.030;73.326;2022-07-26T04:32:24;99545.47;;;26.97;45.46
59600;BME280;61855;55.030;73.326;2022-07-26T04:34:50;99536.28;;;27.01;44.80
59600;BME280;61855;55.030;73.326;2022-07-26T04:37:21;99545.94;;;27.04;45.13
59600;BME280;61855;55.030;73.326;2022-07-26T04:39:47;99538.66;;;27.08;44.78
59600;BME280;61855;55.030;73.326;2022-07-26T04:42:14;99527.56;;;27.08;44.91
59600;BME280;61855;55.030;73.326;2022-07-26T04:44:40;99532.44;;;27.16;45.21
59600;BME280;61855;55.030;73.326;2022-07-26T04:47:06;99532.13;;;27.17;44.68
59600;BME280;61855;55.030;73.326;2022-07-26T04:49:37;99535.72;;;27.18;44.26
59600;BME280;61855;55.030;73.326;2022-07-26T04:52:03;99526.22;;;27.24;43.92
59600;BME280;61855;55.030;73.326;2022-07-26T04:54:29;99528.09;;;27.28;43.84
59600;BME280;61855;55.030;73.326;2022-07-26T04:56:56;99514.84;;;27.25;43.57
59600;BME280;61855;55.030;73.326;2022-07-26T04:59:24;99523.53;;;27.37;43.12
59600;BME280;61855;55.030;73.326;2022-07-26T05:01:56;99522.59;;;27.42;42.80
59600;BME280;61855;55.030;73.326;2022-07-26T05:04:29;99525.28;;;27.47;42.84
59600;BME280;61855;55.030;73.326;2022-07-26T05:06:55;99525.22;;;27.52;42.87
59600;BME280;61855;55.030;73.326;2022-07-26T05:09:30;99527.06;;;27.57;42.80
59600;BME280;61855;55.030;73.326;2022-07-26T05:11:56;99525.03;;;27.62;43.28
59600;BME280;61855;55.030;73.326;2022-07-26T05:14:22;99521.63;;;27.65;42.35
59600;BME280;61855;55.030;73.326;2022-07-26T05:16:52;99519.91;;;27.69;42.32
59600;BME280;61855;55.030;73.326;2022-07-26T05:19:18;99514.78;;;27.76;41.95
59600;BME280;61855;55.030;73.326;2022-07-26T05:21:45;99513.88;;;27.81;42.27
59600;BME280;61855;55.030;73.326;2022-07-26T05:24:12;99506.06;;;27.83;41.66
59600;BME280;61855;55.030;73.326;2022-07-26T05:26:38;99501.94;;;27.80;41.13
59600;BME280;61855;55.030;73.326;2022-07-26T05:29:04;99509.03;;;27.86;41.26
59600;BME280;61855;55.030;73.326;2022-07-26T05:31:30;99508.75;;;27.88;41.13
59600;BME280;61855;55.030;73.326;2022-07-26T05:33:58;99502.88;;;27.89;41.02
59600;BME280;61855;55.030;73.326;2022-07-26T05:36:24;99510.78;;;27.96;39.77
59600;BME280;61855;55.030;73.326;2022-07-26T05:38:50;99493.53;;;27.99;39.04
59600;BME280;61855;55.030;73.326;2022-07-26T05:41:16;99498.78;;;28.00;39.26
59600;BME280;61855;55.030;73.326;2022-07-26T05:43:53;99497.56;;;28.06;38.44
59600;BME280;61855;55.030;73.326;2022-07-26T05:46:19;99496.31;;;28.12;37.96
59600;BME280;61855;55.030;73.326;2022-07-26T05:48:45;99490.16;;;28.15;37.44
59600;BME280;61855;55.030;73.326;2022-07-26T05:51:11;99484.63;;;28.15;37.67
59600;BME280;61855;55.030;73.326;2022-07-26T05:53:38;99486.16;;;28.22;37.20
59600;BME280;61855;55.030;73.326;2022-07-26T05:56:08;99486.84;;;28.27;36.93
59600;BME280;61855;55.030;73.326;2022-07-26T05:58:35;99496.22;;;28.31;36.89
59600;BME280;61855;55.030;73.326;2022-07-26T06:01:01;99490.88;;;28.35;36.83
59600;BME280;61855;55.030;73.326;2022-07-26T06:03:27;99491.59;;;28.40;36.09
59600;BME280;61855;55.030;73.326;2022-07-26T06:05:56;99480.06;;;28.47;35.68
59600;BME280;61855;55.030;73.326;2022-07-26T06:08:25;99485.38;;;28.57;35.72
59600;BME280;61855;55.030;73.326;2022-07-26T06:10:52;99479.31;;;28.68;35.73
59600;BME280;61855;55.030;73.326;2022-07-26T06:13:19;99473.81;;;28.77;35.08
59600;BME280;61855;55.030;73.326;2022-07-26T06:15:45;99476.97;;;28.84;34.84
59600;BME280;61855;55.030;73.326;2022-07-26T06:18:12;99475.75;;;28.90;34.25
59600;BME280;61855;55.030;73.326;2022-07-26T06:20:40;99476.25;;;28.92;33.56
59600;BME280;61855;55.030;73.326;2022-07-26T06:23:07;99464.81;;;28.94;32.95
59600;BME280;61855;55.030;73.326;2022-07-26T06:25:39;99452.75;;;28.98;32.91
59600;BME280;61855;55.030;73.326;2022-07-26T06:28:07;99460.94;;;29.03;33.15
59600;BME280;61855;55.030;73.326;2022-07-26T06:30:35;99459.03;;;29.12;32.51
59600;BME280;61855;55.030;73.326;2022-07-26T06:33:01;99448.88;;;29.21;32.57
59600;BME280;61855;55.030;73.326;2022-07-26T06:35:27;99455.91;;;29.27;32.89
59600;BME280;61855;55.030;73.326;2022-07-26T06:37:56;99450.22;;;29.32;32.15
59600;BME280;61855;55.030;73.326;2022-07-26T06:40:24;99450.09;;;29.37;31.98
59600;BME280;61855;55.030;73.326;2022-07-26T06:42:56;99429.31;;;29.35;31.15
59600;BME280;61855;55.030;73.326;2022-07-26T06:45:22;99438.53;;;29.44;30.69
59600;BME280;61855;55.030;73.326;2022-07-26T06:47:48;99431.19;;;29.48;31.36
59600;BME280;61855;55.030;73.326;2022-07-26T06:50:14;99451.31;;;29.54;31.81
59600;BME280;61855;55.030;73.326;2022-07-26T06:52:47;99438.25;;;29.54;31.42
59600;BME280;61855;55.030;73.326;2022-07-26T06:55:13;99429.63;;;29.64;31.07
59600;BME280;61855;55.030;73.326;2022-07-26T06:57:48;99434.88;;;29.74;31.04
59600;BME280;61855;55.030;73.326;2022-07-26T07:00:15;99433.31;;;29.82;30.84
59600;BME280;61855;55.030;73.326;2022-07-26T07:02:41;99434.50;;;29.89;30.38
59600;BME280;61855;55.030;73.326;2022-07-26T07:05:07;99417.16;;;29.92;28.95
59600;BME280;61855;55.030;73.326;2022-07-26T07:07:34;99425.84;;;29.99;29.29
59600;BME280;61855;55.030;73.326;2022-07-26T07:10:11;99422.41;;;30.02;29.41
59600;BME280;61855;55.030;73.326;2022-07-26T07:12:37;99435.81;;;30.00;29.72
59600;BME280;61855;55.030;73.326;2022-07-26T07:15:05;99423.06;;;29.99;29.81
59600;BME280;61855;55.030;73.326;2022-07-26T07:17:31;99418.34;;;30.00;30.03
59600;BME280;61855;55.030;73.326;2022-07-26T07:19:57;99409.00;;;30.04;29.85
59600;BME280;61855;55.030;73.326;2022-07-26T07:22:25;99407.41;;;30.21;29.58
59600;BME280;61855;55.030;73.326;2022-07-26T07:24:51;99415.59;;;30.26;30.32
59600;BME280;61855;55.030;73.326;2022-07-26T07:27:17;99417.56;;;30.25;31.27
59600;BME280;61855;55.030;73.326;2022-07-26T07:29:43;99406.09;;;30.27;31.69
59600;BME280;61855;55.030;73.326;2022-07-26T07:32:09;99406.75;;;30.32;30.86
59600;BME280;61855;55.030;73.326;2022-07-26T07:34:36;99396.16;;;30.34;30.35
59600;BME280;61855;55.030;73.326;2022-07-26T07:37:03;99403.84;;;30.46;31.47
59600;BME280;61855;55.030;73.326;2022-07-26T07:39:29;99412.84;;;30.51;30.62
59600;BME280;61855;55.030;73.326;2022-07-26T07:41:56;99405.97;;;30.57;30.05
59600;BME280;61855;55.030;73.326;2022-07-26T07:44:22;99407.63;;;30.58;30.38
59600;BME280;61855;55.030;73.326;2022-07-26T07:46:48;99405.19;;;30.57;30.59
59600;BME280;61855;55.030;73.326;2022-07-26T07:49:18;99409.75;;;30.44;30.51
59600;BME280;61855;55.030;73.326;2022-07-26T07:51:54;99406.75;;;30.32;31.21
59600;BME280;61855;55.030;73.326;2022-07-26T07:54:20;99415.09;;;30.32;32.39
59600;BME280;61855;55.030;73.326;2022-07-26T07:56:46;99408.25;;;30.38;30.96
59600;BME280;61855;55.030;73.326;2022-07-26T07:59:12;99410.22;;;30.46;29.90
59600;BME280;61855;55.030;73.326;2022-07-26T08:01:38;99408.13;;;30.52;31.62
59600;BME280;61855;55.030;73.326;2022-07-26T08:04:04;99409.41;;;30.46;30.89
59600;BME280;61855;55.030;73.326;2022-07-26T08:06:30;99398.94;;;30.43;30.11
59600;BME280;61855;55.030;73.326;2022-07-26T08:08:56;99405.50;;;30.47;30.49
59600;BME280;61855;55.030;73.326;2022-07-26T08:11:22;99414.34;;;30.49;30.82
59600;BME280;61855;55.030;73.326;2022-07-26T08:13:48;99409.59;;;30.49;30.65
59600;BME280;61855;55.030;73.326;2022-07-26T08:16:14;99415.16;;;30.49;31.13
59600;BME280;61855;55.030;73.326;2022-07-26T08:18:43;99415.66;;;30.51;31.07
59600;BME280;61855;55.030;73.326;2022-07-26T08:21:09;99406.16;;;30.61;31.10
59600;BME280;61855;55.030;73.326;2022-07-26T08:23:38;99405.97;;;30.66;29.40
59600;BME280;61855;55.030;73.326;2022-07-26T08:26:05;99403.84;;;30.71;29.56
59600;BME280;61855;55.030;73.326;2022-07-26T08:28:32;99406.63;;;30.71;29.90
59600;BME280;61855;55.030;73.326;2022-07-26T08:30:58;99404.84;;;30.75;30.12
59600;BME280;61855;55.030;73.326;2022-07-26T08:33:24;99387.13;;;30.80;30.17
59600;BME280;61855;55.030;73.326;2022-07-26T08:35:56;99398.41;;;30.83;30.00
59600;BME280;61855;55.030;73.326;2022-07-26T08:38:22;99392.72;;;30.89;30.02
59600;BME280;61855;55.030;73.326;2022-07-26T08:40:48;99396.81;;;31.00;30.22
59600;BME280;61855;55.030;73.326;2022-07-26T08:43:14;99393.81;;;31.05;29.83
59600;BME280;61855;55.030;73.326;2022-07-26T08:45:40;99394.16;;;31.12;28.71
59600;BME280;61855;55.030;73.326;2022-07-26T08:48:06;99390.03;;;31.18;29.23
59600;BME280;61855;55.030;73.326;2022-07-26T08:50:42;99390.84;;;31.18;29.74
59600;BME280;61855;55.030;73.326;2022-07-26T08:53:08;99390.38;;;31.16;29.41
59600;BME280;61855;55.030;73.326;2022-07-26T08:55:36;99394.63;;;31.14;28.53
59600;BME280;61855;55.030;73.326;2022-07-26T08:58:07;99389.69;;;31.19;28.52
59600;BME280;61855;55.030;73.326;2022-07-26T09:00:36;99375.75;;;31.28;27.44
59600;BME280;61855;55.030;73.326;2022-07-26T09:03:03;99373.38;;;31.38;28.19
59600;BME280;61855;55.030;73.326;2022-07-26T09:05:54;99381.91;;;31.42;28.48
59600;BME280;61855;55.030;73.326;2022-07-26T09:08:28;99371.44;;;31.39;29.18
59600;BME280;61855;55.030;73.326;2022-07-26T09:10:56;99367.50;;;31.40;28.57
59600;BME280;61855;55.030;73.326;2022-07-26T09:13:22;99370.75;;;31.51;29.40
59600;BME280;61855;55.030;73.326;2022-07-26T09:16:09;99356.28;;;31.57;28.00
59600;BME280;61855;55.030;73.326;2022-07-26T09:18:35;99359.88;;;31.66;27.32
59600;BME280;61855;55.030;73.326;2022-07-26T09:21:04;99348.69;;;31.66;27.74
59600;BME280;61855;55.030;73.326;2022-07-26T09:23:39;99350.41;;;31.79;27.30
59600;BME280;61855;55.030;73.326;2022-07-26T09:26:06;99341.31;;;31.91;27.14
59600;BME280;61855;55.030;73.326;2022-07-26T09:28:32;99341.59;;;32.06;27.84
59600;BME280;61855;55.030;73.326;2022-07-26T09:31:07;99330.16;;;32.20;27.05
59600;BME280;61855;55.030;73.326;2022-07-26T09:33:45;99341.75;;;32.43;27.55
59600;BME280;61855;55.030;73.326;2022-07-26T09:36:11;99343.72;;;32.51;26.50
59600;BME280;61855;55.030;73.326;2022-07-26T09:38:47;99340.03;;;32.59;26.31
59600;BME280;61855;55.030;73.326;2022-07-26T09:41:20;99340.41;;;32.49;26.46
59600;BME280;61855;55.030;73.326;2022-07-26T09:43:49;99332.03;;;32.49;27.95
59600;BME280;61855;55.030;73.326;2022-07-26T09:46:22;99328.28;;;32.65;26.38
59600;BME280;61855;55.030;73.326;2022-07-26T09:48:51;99324.50;;;32.82;26.41
59600;BME280;61855;55.030;73.326;2022-07-26T09:51:41;99318.34;;;32.89;24.99
59600;BME280;61855;55.030;73.326;2022-07-26T09:54:10;99328.38;;;32.90;25.87
59600;BME280;61855;55.030;73.326;2022-07-26T09:56:44;99324.31;;;32.99;25.41
59600;BME280;61855;55.030;73.326;2022-07-26T09:59:23;99317.84;;;33.07;24.67
59600;BME280;61855;55.030;73.326;2022-07-26T10:01:53;99313.22;;;33.23;24.71
59600;BME280;61855;55.030;73.326;2022-07-26T10:04:25;99318.91;;;33.27;25.29
59600;BME280;61855;55.030;73.326;2022-07-26T10:06:52;99318.53;;;33.16;25.29
59600;BME280;61855;55.030;73.326;2022-07-26T10:09:23;99316.22;;;33.18;24.79
59600;BME280;61855;55.030;73.326;2022-07-26T10:12:02;99308.09;;;33.25;24.74
59600;BME280;61855;55.030;73.326;2022-07-26T10:14:40;99309.38;;;33.40;24.07
59600;BME280;61855;55.030;73.326;2022-07-26T10:20:05;99298.88;;;33.49;24.13
59600;BME280;61855;55.030;73.326;2022-07-26T10:22:44;99291.44;;;33.65;24.95
59600;BME280;61855;55.030;73.326;2022-07-26T10:27:56;99285.22;;;33.96;24.90
59600;BME280;61855;55.030;73.326;2022-07-26T10:30:27;99292.16;;;34.02;24.43
59600;BME280;61855;55.030;73.326;2022-07-26T10:33:02;99298.38;;;34.08;24.29
59600;BME280;61855;55.030;73.326;2022-07-26T10:35:39;99299.22;;;33.84;24.87
59600;BME280;61855;55.030;73.326;2022-07-26T10:41:07;99296.41;;;34.08;23.79
59600;BME280;61855;55.030;73.326;2022-07-26T10:43:35;99295.09;;;35.16;22.99
59600;BME280;61855;55.030;73.326;2022-07-26T10:51:25;99282.66;;;38.15;19.32
59600;BME280;61855;55.030;73.326;2022-07-26T10:54:02;99282.94;;;39.03;18.69
59600;BME280;61855;55.030;73.326;2022-07-26T10:56:29;99278.56;;;39.56;18.42
59600;BME280;61855;55.030;73.326;2022-07-26T10:59:05;99279.13;;;39.76;18.17
59600;BME280;61855;55.030;73.326;2022-07-26T11:01:40;99279.94;;;39.76;18.17
59600;BME280;61855;55.030;73.326;2022-07-26T11:04:21;99277.19;;;40.66;17.18
59600;BME280;61855;55.030;73.326;2022-07-26T11:06:47;99269.22;;;41.42;17.02
59600;BME280;61855;55.030;73.326;2022-07-26T11:09:14;99266.38;;;41.88;16.05
59600;BME280;61855;55.030;73.326;2022-07-26T11:11:41;99266.91;;;42.66;14.98
59600;BME280;61855;55.030;73.326;2022-07-26T11:14:19;99260.25;;;42.94;15.12
59600;BME280;61855;55.030;73.326;2022-07-26T11:16:48;99258.81;;;42.61;14.99
59600;BME280;61855;55.030;73.326;2022-07-26T11:19:22;99251.91;;;42.66;14.93
59600;BME280;61855;55.030;73.326;2022-07-26T11:21:55;99245.28;;;42.90;14.55
59600;BME280;61855;55.030;73.326;2022-07-26T11:24:26;99252.44;;;43.12;15.44
59600;BME280;61855;55.030;73.326;2022-07-26T11:26:55;99243.38;;;43.31;15.21
59600;BME280;61855;55.030;73.326;2022-07-26T11:29:28;99230.25;;;43.48;14.33
59600;BME280;61855;55.030;73.326;2022-07-26T11:31:54;99228.41;;;43.71;13.97
59600;BME280;61855;55.030;73.326;2022-07-26T11:34:22;99221.72;;;43.89;13.93
59600;BME280;61855;55.030;73.326;2022-07-26T11:36:51;99223.28;;;43.93;13.92
59600;BME280;61855;55.030;73.326;2022-07-26T11:39:26;99220.69;;;43.65;14.52
59600;BME280;61855;55.030;73.326;2022-07-26T11:42:07;99214.00;;;43.00;14.65
59600;BME280;61855;55.030;73.326;2022-07-26T11:44:34;99205.06;;;42.36;15.23
59600;BME280;61855;55.030;73.326;2022-07-26T11:47:19;99206.88;;;41.88;15.55
59600;BME280;61855;55.030;73.326;2022-07-26T11:49:47;99193.56;;;41.53;16.14
59600;BME280;61855;55.030;73.326;2022-07-26T11:52:15;99187.94;;;41.07;16.33
59600;BME280;61855;55.030;73.326;2022-07-26T11:54:49;99186.16;;;40.32;17.12
59600;BME280;61855;55.030;73.326;2022-07-26T11:57:17;99191.88;;;40.46;16.76
59600;BME280;61855;55.030;73.326;2022-07-26T11:59:47;99190.03;;;39.92;17.58
59600;BME280;61855;55.030;73.326;2022-07-26T12:02:16;99184.38;;;39.28;17.89
59600;BME280;61855;55.030;73.326;2022-07-26T12:04:46;99194.69;;;38.66;18.84
59600;BME280;61855;55.030;73.326;2022-07-26T12:07:14;99194.13;;;38.16;18.80
59600;BME280;61855;55.030;73.326;2022-07-26T12:09:50;99184.28;;;37.73;19.64
59600;BME280;61855;55.030;73.326;2022-07-26T12:14:59;99178.97;;;37.12;19.77
59600;BME280;61855;55.030;73.326;2022-07-26T12:17:26;99189.78;;;36.65;20.86
59600;BME280;61855;55.030;73.326;2022-07-26T12:20:13;99178.16;;;36.06;20.90
59600;BME280;61855;55.030;73.326;2022-07-26T12:22:56;99185.50;;;35.56;21.69
59600;BME280;61855;55.030;73.326;2022-07-26T12:25:28;99188.63;;;35.20;21.69
59600;BME280;61855;55.030;73.326;2022-07-26T12:27:56;99190.09;;;34.83;22.01
59600;BME280;61855;55.030;73.326;2022-07-26T12:30:23;99196.56;;;34.55;22.81
59600;BME280;61855;55.030;73.326;2022-07-26T12:33:00;99186.91;;;34.25;23.54
59600;BME280;61855;55.030;73.326;2022-07-26T12:35:31;99182.91;;;33.98;23.37
59600;BME280;61855;55.030;73.326;2022-07-26T12:38:00;99180.31;;;33.78;24.17
59600;BME280;61855;55.030;73.326;2022-07-26T12:40:39;99188.06;;;33.57;24.71
59600;BME280;61855;55.030;73.326;2022-07-26T12:43:06;99184.31;;;33.40;24.71
59600;BME280;61855;55.030;73.326;2022-07-26T12:45:34;99191.22;;;33.55;25.36
59600;BME280;61855;55.030;73.326;2022-07-26T12:48:06;99177.56;;;33.93;24.38
59600;BME280;61855;55.030;73.326;2022-07-26T12:50:36;99186.34;;;34.20;24.07
59600;BME280;61855;55.030;73.326;2022-07-26T12:53:06;99185.19;;;34.21;23.74
59600;BME280;61855;55.030;73.326;2022-07-26T12:55:36;99187.34;;;34.55;23.57
59600;BME280;61855;55.030;73.326;2022-07-26T12:58:06;99187.13;;;34.48;23.72
59600;BME280;61855;55.030;73.326;2022-07-26T13:00:32;99182.59;;;34.28;23.41
59600;BME280;61855;55.030;73.326;2022-07-26T13:02:58;99194.94;;;34.27;23.00
59600;BME280;61855;55.030;73.326;2022-07-26T13:05:24;99179.94;;;34.19;23.12
59600;BME280;61855;55.030;73.326;2022-07-26T13:08:00;99183.72;;;34.11;23.63
59600;BME280;61855;55.030;73.326;2022-07-26T13:10:35;99185.13;;;34.05;24.13
59600;BME280;61855;55.030;73.326;2022-07-26T13:13:02;99182.25;;;35.04;22.50
59600;BME280;61855;55.030;73.326;2022-07-26T13:15:29;99183.59;;;35.45;22.17